sensor_id;sensor_type;location;lat;lon;timestamp;temperature;humidity
3705;DHT22;1868;48.918;9.438;2024-03-17T00:01:51;7.80;97.40
3705;DHT22;1868;48.918;9.438;2024-03-17T00:04:21;7.80;97.40
3705;DHT22;1868;48.918;9.438;2024-03-17T00:06:48;7.80;97.40
3705;DHT22;1868;48.918;9.438;2024-03-17T00:09:16;7.80;97.40
3705;DHT22;1868;48.918;9.438;2024-03-17T00:11:45;7.80;97.40
3705;DHT22;1868;48.918;9.438;2024-03-17T00:14:13;7.70;97.40
3705;DHT22;1868;48.918;9.438;2024-03-17T00:16:39;7.70;97.40
3705;DHT22;1868;48.918;9.438;2024-03-17T00:19:08;7.60;97.40
3705;DHT22;1868;48.918;9.438;2024-03-17T00:21:36;7.50;97.40
3705;DHT22;1868;48.918;9.438;2024-03-17T00:24:06;7.50;97.40
3705;DHT22;1868;48.918;9.438;2024-03-17T00:26:36;7.50;97.40
3705;DHT22;1868;48.918;9.438;2024-03-17T00:29:04;7.50;97.40
3705;DHT22;1868;48.918;9.438;2024-03-17T00:31:32;7.50;97.40
3705;DHT22;1868;48.918;9.438;2024-03-17T00:34:00;7.50;97.40
3705;DHT22;1868;48.918;9.438;2024-03-17T00:36:27;7.50;97.40
3705;DHT22;1868;48.918;9.438;2024-03-17T00:38:57;7.40;97.40
3705;DHT22;1868;48.918;9.438;2024-03-17T00:41:24;7.40;97.40
3705;DHT22;1868;48.918;9.438;2024-03-17T00:43:53;7.40;97.40
3705;DHT22;1868;48.918;9.438;2024-03-17T00:46:20;7.40;97.40
3705;DHT22;1868;48.918;9.438;2024-03-17T00:48:49;7.40;97.40
3705;DHT22;1868;48.918;9.438;2024-03-17T00:51:16;7.40;97.40
3705;DHT22;1868;48.918;9.438;2024-03-17T00:53:44;7.40;97.40
3705;DHT22;1868;48.918;9.438;2024-03-17T00:56:12;7.40;97.40
3705;DHT22;1868;48.918;9.438;2024-03-17T00:58:43;7.40;97.40
3705;DHT22;1868;48.918;9.438;2024-03-17T01:01:12;7.30;97.40
3705;DHT22;1868;48.918;9.438;2024-03-17T01:03:40;7.30;97.40
3705;DHT22;1868;48.918;9.438;2024-03-17T01:06:07;7.30;97.40
3705;DHT22;1868;48.918;9.438;2024-03-17T01:08:36;7.20;97.40
3705;DHT22;1868;48.918;9.438;2024-03-17T01:11:03;7.20;97.40
3705;DHT22;1868;48.918;9.438;2024-03-17T01:13:35;7.30;97.40
3705;DHT22;1868;48.918;9.438;2024-03-17T01:16:07;7.30;97.40
3705;DHT22;1868;48.918;9.438;2024-03-17T01:18:35;7.30;97.40
3705;DHT22;1868;48.918;9.438;2024-03-17T01:21:03;7.20;97.40
3705;DHT22;1868;48.918;9.438;2024-03-17T01:23:32;7.20;97.40
3705;DHT22;1868;48.918;9.438;2024-03-17T01:26:00;7.20;97.40
3705;DHT22;1868;48.918;9.438;2024-03-17T01:28:28;7.10;97.40
3705;DHT22;1868;48.918;9.438;2024-03-17T01:30:56;7.10;97.40
3705;DHT22;1868;48.918;9.438;2024-03-17T01:33:27;7.10;97.40
3705;DHT22;1868;48.918;9.438;2024-03-17T01:35:54;7.00;97.40
3705;DHT22;1868;48.918;9.438;2024-03-17T01:38:22;7.00;97.40
3705;DHT22;1868;48.918;9.438;2024-03-17T01:40:50;7.00;97.40
3705;DHT22;1868;48.918;9.438;2024-03-17T01:43:18;6.90;97.40
3705;DHT22;1868;48.918;9.438;2024-03-17T01:45:47;6.90;97.40
3705;DHT22;1868;48.918;9.438;2024-03-17T01:48:17;6.90;97.40
3705;DHT22;1868;48.918;9.438;2024-03-17T01:50:45;6.90;97.40
3705;DHT22;1868;48.918;9.438;2024-03-17T01:53:16;6.90;97.40
3705;DHT22;1868;48.918;9.438;2024-03-17T01:55:44;6.90;97.40
3705;DHT22;1868;48.918;9.438;2024-03-17T01:58:13;6.90;97.40
3705;DHT22;1868;48.918;9.438;2024-03-17T02:00:40;6.90;97.40
3705;DHT22;1868;48.918;9.438;2024-03-17T02:03:12;6.90;97.40
3705;DHT22;1868;48.918;9.438;2024-03-17T02:05:40;6.90;97.40
3705;DHT22;1868;48.918;9.438;2024-03-17T02:08:10;6.90;97.40
3705;DHT22;1868;48.918;9.438;2024-03-17T02:10:37;6.90;97.40
3705;DHT22;1868;48.918;9.438;2024-03-17T02:13:06;6.90;97.40
3705;DHT22;1868;48.918;9.438;2024-03-17T02:15:33;6.90;97.40
3705;DHT22;1868;48.918;9.438;2024-03-17T02:18:01;6.90;97.40
3705;DHT22;1868;48.918;9.438;2024-03-17T02:20:28;6.80;97.40
3705;DHT22;1868;48.918;9.438;2024-03-17T02:23:11;6.80;97.40
3705;DHT22;1868;48.918;9.438;2024-03-17T02:25:39;6.80;97.40
3705;DHT22;1868;48.918;9.438;2024-03-17T02:28:07;6.80;97.40
3705;DHT22;1868;48.918;9.438;2024-03-17T02:30:34;6.80;97.40
3705;DHT22;1868;48.918;9.438;2024-03-17T02:33:02;6.70;97.40
3705;DHT22;1868;48.918;9.438;2024-03-17T02:35:29;6.70;97.40
3705;DHT22;1868;48.918;9.438;2024-03-17T02:37:57;6.70;97.40
3705;DHT22;1868;48.918;9.438;2024-03-17T02:40:25;6.70;97.40
3705;DHT22;1868;48.918;9.438;2024-03-17T02:42:54;6.70;97.40
3705;DHT22;1868;48.918;9.438;2024-03-17T02:45:21;6.60;97.40
3705;DHT22;1868;48.918;9.438;2024-03-17T02:47:51;6.60;97.40
3705;DHT22;1868;48.918;9.438;2024-03-17T02:50:18;6.60;97.40
3705;DHT22;1868;48.918;9.438;2024-03-17T02:52:46;6.60;97.40
3705;DHT22;1868;48.918;9.438;2024-03-17T02:55:15;6.60;97.40
3705;DHT22;1868;48.918;9.438;2024-03-17T02:57:50;6.50;97.40
3705;DHT22;1868;48.918;9.438;2024-03-17T03:00:18;6.50;97.40
3705;DHT22;1868;48.918;9.438;2024-03-17T03:02:47;6.50;97.40
3705;DHT22;1868;48.918;9.438;2024-03-17T03:05:16;6.50;97.40
3705;DHT22;1868;48.918;9.438;2024-03-17T03:07:43;6.50;97.40
3705;DHT22;1868;48.918;9.438;2024-03-17T03:10:11;6.50;97.40
3705;DHT22;1868;48.918;9.438;2024-03-17T03:12:39;6.40;97.40
3705;DHT22;1868;48.918;9.438;2024-03-17T03:15:09;6.40;97.40
3705;DHT22;1868;48.918;9.438;2024-03-17T03:17:37;6.40;97.40
3705;DHT22;1868;48.918;9.438;2024-03-17T03:20:05;6.30;97.40
3705;DHT22;1868;48.918;9.438;2024-03-17T03:22:33;6.30;97.40
3705;DHT22;1868;48.918;9.438;2024-03-17T03:25:03;6.30;97.40
3705;DHT22;1868;48.918;9.438;2024-03-17T03:27:33;6.30;97.40
3705;DHT22;1868;48.918;9.438;2024-03-17T03:30:01;6.20;97.40
3705;DHT22;1868;48.918;9.438;2024-03-17T03:32:30;6.20;97.40
3705;DHT22;1868;48.918;9.438;2024-03-17T03:35:02;6.20;97.40
3705;DHT22;1868;48.918;9.438;2024-03-17T03:37:31;6.20;97.40
3705;DHT22;1868;48.918;9.438;2024-03-17T03:39:59;6.20;97.40
3705;DHT22;1868;48.918;9.438;2024-03-17T03:42:27;6.20;97.40
3705;DHT22;1868;48.918;9.438;2024-03-17T03:44:55;6.10;97.40
3705;DHT22;1868;48.918;9.438;2024-03-17T03:47:22;6.10;97.40
3705;DHT22;1868;48.918;9.438;2024-03-17T03:49:52;6.10;97.40
3705;DHT22;1868;48.918;9.438;2024-03-17T03:52:20;6.00;97.40
3705;DHT22;1868;48.918;9.438;2024-03-17T03:54:51;6.00;97.40
3705;DHT22;1868;48.918;9.438;2024-03-17T03:57:24;6.00;97.40
3705;DHT22;1868;48.918;9.438;2024-03-17T03:59:55;6.00;97.40
3705;DHT22;1868;48.918;9.438;2024-03-17T04:02:25;5.90;97.40
3705;DHT22;1868;48.918;9.438;2024-03-17T04:04:58;5.90;97.40
3705;DHT22;1868;48.918;9.438;2024-03-17T04:07:26;5.90;97.40
3705;DHT22;1868;48.918;9.438;2024-03-17T04:09:56;5.90;97.40
3705;DHT22;1868;48.918;9.438;2024-03-17T04:12:25;5.90;97.40
3705;DHT22;1868;48.918;9.438;2024-03-17T04:14:59;5.90;97.40
3705;DHT22;1868;48.918;9.438;2024-03-17T04:17:27;5.90;97.40
3705;DHT22;1868;48.918;9.438;2024-03-17T04:19:55;5.90;97.40
3705;DHT22;1868;48.918;9.438;2024-03-17T04:22:24;5.90;97.40
3705;DHT22;1868;48.918;9.438;2024-03-17T04:24:53;5.90;97.40
3705;DHT22;1868;48.918;9.438;2024-03-17T04:27:24;5.90;97.40
3705;DHT22;1868;48.918;9.438;2024-03-17T04:29:52;5.90;97.40
3705;DHT22;1868;48.918;9.438;2024-03-17T04:32:21;5.90;97.40
3705;DHT22;1868;48.918;9.438;2024-03-17T04:34:53;5.90;97.40
3705;DHT22;1868;48.918;9.438;2024-03-17T04:37:20;5.90;97.40
3705;DHT22;1868;48.918;9.438;2024-03-17T04:39:50;5.90;97.40
3705;DHT22;1868;48.918;9.438;2024-03-17T04:42:19;5.90;97.40
3705;DHT22;1868;48.918;9.438;2024-03-17T04:44:47;5.80;97.40
3705;DHT22;1868;48.918;9.438;2024-03-17T04:47:15;5.80;97.40
3705;DHT22;1868;48.918;9.438;2024-03-17T04:49:44;5.80;97.40
3705;DHT22;1868;48.918;9.438;2024-03-17T04:52:12;5.80;97.40
3705;DHT22;1868;48.918;9.438;2024-03-17T04:54:42;5.70;97.40
3705;DHT22;1868;48.918;9.438;2024-03-17T04:57:11;5.70;97.40
3705;DHT22;1868;48.918;9.438;2024-03-17T04:59:40;5.70;97.40
3705;DHT22;1868;48.918;9.438;2024-03-17T05:02:08;5.70;97.40
3705;DHT22;1868;48.918;9.438;2024-03-17T05:04:38;5.70;97.40
3705;DHT22;1868;48.918;9.438;2024-03-17T05:07:08;5.70;97.40
3705;DHT22;1868;48.918;9.438;2024-03-17T05:09:37;5.70;97.40
3705;DHT22;1868;48.918;9.438;2024-03-17T05:12:06;5.70;97.40
3705;DHT22;1868;48.918;9.438;2024-03-17T05:14:37;5.60;97.40
3705;DHT22;1868;48.918;9.438;2024-03-17T05:17:07;5.60;97.40
3705;DHT22;1868;48.918;9.438;2024-03-17T05:19:37;5.60;97.40
3705;DHT22;1868;48.918;9.438;2024-03-17T05:22:06;5.50;97.40
3705;DHT22;1868;48.918;9.438;2024-03-17T05:24:33;5.40;97.40
3705;DHT22;1868;48.918;9.438;2024-03-17T05:27:01;5.40;97.40
3705;DHT22;1868;48.918;9.438;2024-03-17T05:29:30;5.40;97.40
3705;DHT22;1868;48.918;9.438;2024-03-17T05:32:00;5.30;97.40
3705;DHT22;1868;48.918;9.438;2024-03-17T05:34:28;5.20;97.40
3705;DHT22;1868;48.918;9.438;2024-03-17T05:36:58;5.20;97.40
3705;DHT22;1868;48.918;9.438;2024-03-17T05:39:27;5.20;97.40
3705;DHT22;1868;48.918;9.438;2024-03-17T05:41:55;5.10;97.40
3705;DHT22;1868;48.918;9.438;2024-03-17T05:44:23;5.10;97.40
3705;DHT22;1868;48.918;9.438;2024-03-17T05:46:51;5.10;97.40
3705;DHT22;1868;48.918;9.438;2024-03-17T05:49:21;5.00;97.40
3705;DHT22;1868;48.918;9.438;2024-03-17T05:51:49;5.00;97.40
3705;DHT22;1868;48.918;9.438;2024-03-17T05:54:17;5.00;97.40
3705;DHT22;1868;48.918;9.438;2024-03-17T05:56:46;5.00;97.40
3705;DHT22;1868;48.918;9.438;2024-03-17T05:59:14;5.00;97.40
3705;DHT22;1868;48.918;9.438;2024-03-17T06:01:42;5.10;97.40
3705;DHT22;1868;48.918;9.438;2024-03-17T06:04:10;5.20;97.40
3705;DHT22;1868;48.918;9.438;2024-03-17T06:06:40;5.20;97.40
3705;DHT22;1868;48.918;9.438;2024-03-17T06:09:07;5.30;97.40
3705;DHT22;1868;48.918;9.438;2024-03-17T06:11:37;5.30;97.40
3705;DHT22;1868;48.918;9.438;2024-03-17T06:14:07;5.60;97.40
3705;DHT22;1868;48.918;9.438;2024-03-17T06:16:38;5.90;97.40
3705;DHT22;1868;48.918;9.438;2024-03-17T06:19:06;6.30;97.40
3705;DHT22;1868;48.918;9.438;2024-03-17T06:21:34;6.60;97.40
3705;DHT22;1868;48.918;9.438;2024-03-17T06:24:04;6.70;97.40
3705;DHT22;1868;48.918;9.438;2024-03-17T06:26:33;6.90;97.40
3705;DHT22;1868;48.918;9.438;2024-03-17T06:29:01;7.30;97.40
3705;DHT22;1868;48.918;9.438;2024-03-17T06:31:29;7.70;97.40
3705;DHT22;1868;48.918;9.438;2024-03-17T06:33:57;8.00;97.40
3705;DHT22;1868;48.918;9.438;2024-03-17T06:36:26;8.30;97.40
3705;DHT22;1868;48.918;9.438;2024-03-17T06:38:54;8.60;97.40
3705;DHT22;1868;48.918;9.438;2024-03-17T06:41:24;8.80;97.40
3705;DHT22;1868;48.918;9.438;2024-03-17T06:43:51;9.10;97.40
3705;DHT22;1868;48.918;9.438;2024-03-17T06:46:19;9.60;97.40
3705;DHT22;1868;48.918;9.438;2024-03-17T06:48:47;9.50;97.40
3705;DHT22;1868;48.918;9.438;2024-03-17T06:51:15;9.50;97.40
3705;DHT22;1868;48.918;9.438;2024-03-17T06:53:43;9.90;97.40
3705;DHT22;1868;48.918;9.438;2024-03-17T06:56:11;10.10;97.40
3705;DHT22;1868;48.918;9.438;2024-03-17T06:58:41;10.20;97.40
3705;DHT22;1868;48.918;9.438;2024-03-17T07:01:08;10.40;97.40
3705;DHT22;1868;48.918;9.438;2024-03-17T07:03:37;10.60;97.40
3705;DHT22;1868;48.918;9.438;2024-03-17T07:06:05;11.20;97.40
3705;DHT22;1868;48.918;9.438;2024-03-17T07:08:34;11.50;97.40
3705;DHT22;1868;48.918;9.438;2024-03-17T07:11:10;11.90;97.40
3705;DHT22;1868;48.918;9.438;2024-03-17T07:13:38;12.50;97.40
3705;DHT22;1868;48.918;9.438;2024-03-17T07:16:09;13.20;97.40
3705;DHT22;1868;48.918;9.438;2024-03-17T07:18:37;13.70;97.40
3705;DHT22;1868;48.918;9.438;2024-03-17T07:21:05;14.50;97.40
3705;DHT22;1868;48.918;9.438;2024-03-17T07:23:36;15.30;97.40
3705;DHT22;1868;48.918;9.438;2024-03-17T07:26:06;16.30;97.40
3705;DHT22;1868;48.918;9.438;2024-03-17T07:28:35;17.30;97.40
3705;DHT22;1868;48.918;9.438;2024-03-17T07:31:10;18.10;97.40
3705;DHT22;1868;48.918;9.438;2024-03-17T07:33:38;18.90;97.40
3705;DHT22;1868;48.918;9.438;2024-03-17T07:36:06;19.70;97.40
3705;DHT22;1868;48.918;9.438;2024-03-17T07:38:36;20.50;97.40
3705;DHT22;1868;48.918;9.438;2024-03-17T07:41:10;21.20;97.40
3705;DHT22;1868;48.918;9.438;2024-03-17T07:43:39;21.20;97.40
3705;DHT22;1868;48.918;9.438;2024-03-17T07:46:11;21.00;97.40
3705;DHT22;1868;48.918;9.438;2024-03-17T07:48:40;21.00;97.40
3705;DHT22;1868;48.918;9.438;2024-03-17T07:51:11;21.40;96.10
3705;DHT22;1868;48.918;9.438;2024-03-17T07:53:41;21.60;97.00
3705;DHT22;1868;48.918;9.438;2024-03-17T07:56:12;21.70;97.30
3705;DHT22;1868;48.918;9.438;2024-03-17T07:58:43;21.40;96.40
3705;DHT22;1868;48.918;9.438;2024-03-17T08:01:14;21.10;96.30
3705;DHT22;1868;48.918;9.438;2024-03-17T08:03:45;21.40;95.60
3705;DHT22;1868;48.918;9.438;2024-03-17T08:06:20;21.90;96.60
3705;DHT22;1868;48.918;9.438;2024-03-17T08:08:48;22.60;94.10
3705;DHT22;1868;48.918;9.438;2024-03-17T08:11:18;22.90;93.40
3705;DHT22;1868;48.918;9.438;2024-03-17T08:13:45;23.30;93.90
3705;DHT22;1868;48.918;9.438;2024-03-17T08:16:15;23.80;91.60
3705;DHT22;1868;48.918;9.438;2024-03-17T08:18:44;24.10;91.30
3705;DHT22;1868;48.918;9.438;2024-03-17T08:21:13;24.50;90.60
3705;DHT22;1868;48.918;9.438;2024-03-17T08:23:41;24.40;86.60
3705;DHT22;1868;48.918;9.438;2024-03-17T08:26:13;24.10;89.70
3705;DHT22;1868;48.918;9.438;2024-03-17T08:28:46;24.20;90.10
3705;DHT22;1868;48.918;9.438;2024-03-17T08:31:19;23.70;89.60
3705;DHT22;1868;48.918;9.438;2024-03-17T08:33:49;23.50;91.20
3705;DHT22;1868;48.918;9.438;2024-03-17T08:36:18;23.00;91.40
3705;DHT22;1868;48.918;9.438;2024-03-17T08:38:47;22.90;93.00
3705;DHT22;1868;48.918;9.438;2024-03-17T08:41:15;22.70;94.20
3705;DHT22;1868;48.918;9.438;2024-03-17T08:43:43;22.50;93.60
3705;DHT22;1868;48.918;9.438;2024-03-17T08:46:14;22.50;93.50
3705;DHT22;1868;48.918;9.438;2024-03-17T08:48:43;22.20;94.80
3705;DHT22;1868;48.918;9.438;2024-03-17T08:51:12;22.10;94.70
3705;DHT22;1868;48.918;9.438;2024-03-17T08:53:42;21.90;95.20
3705;DHT22;1868;48.918;9.438;2024-03-17T08:56:10;21.50;96.10
3705;DHT22;1868;48.918;9.438;2024-03-17T08:58:39;20.90;96.50
3705;DHT22;1868;48.918;9.438;2024-03-17T09:01:07;20.50;97.40
3705;DHT22;1868;48.918;9.438;2024-03-17T09:03:38;20.10;97.40
3705;DHT22;1868;48.918;9.438;2024-03-17T09:06:14;19.90;97.40
3705;DHT22;1868;48.918;9.438;2024-03-17T09:08:43;19.60;97.40
3705;DHT22;1868;48.918;9.438;2024-03-17T09:11:13;19.20;97.40
3705;DHT22;1868;48.918;9.438;2024-03-17T09:13:41;18.90;97.40
3705;DHT22;1868;48.918;9.438;2024-03-17T09:16:10;18.70;97.40
3705;DHT22;1868;48.918;9.438;2024-03-17T09:18:39;18.60;97.40
3705;DHT22;1868;48.918;9.438;2024-03-17T09:21:08;18.60;97.40
3705;DHT22;1868;48.918;9.438;2024-03-17T09:23:39;19.10;97.40
3705;DHT22;1868;48.918;9.438;2024-03-17T09:26:09;19.70;97.40
3705;DHT22;1868;48.918;9.438;2024-03-17T09:28:38;19.70;97.40
3705;DHT22;1868;48.918;9.438;2024-03-17T09:31:07;19.40;97.40
3705;DHT22;1868;48.918;9.438;2024-03-17T09:33:36;19.10;97.40
3705;DHT22;1868;48.918;9.438;2024-03-17T09:36:05;19.10;97.40
3705;DHT22;1868;48.918;9.438;2024-03-17T09:38:35;19.20;97.40
3705;DHT22;1868;48.918;9.438;2024-03-17T09:41:06;19.80;97.40
3705;DHT22;1868;48.918;9.438;2024-03-17T09:43:35;20.60;97.40
3705;DHT22;1868;48.918;9.438;2024-03-17T09:46:03;21.20;97.30
3705;DHT22;1868;48.918;9.438;2024-03-17T09:48:34;21.20;95.00
3705;DHT22;1868;48.918;9.438;2024-03-17T09:51:03;21.10;92.60
3705;DHT22;1868;48.918;9.438;2024-03-17T09:53:34;21.30;92.90
3705;DHT22;1868;48.918;9.438;2024-03-17T09:56:08;21.20;92.80
3705;DHT22;1868;48.918;9.438;2024-03-17T09:58:38;21.10;92.50
3705;DHT22;1868;48.918;9.438;2024-03-17T10:01:05;21.30;92.10
3705;DHT22;1868;48.918;9.438;2024-03-17T10:03:40;21.20;90.10
3705;DHT22;1868;48.918;9.438;2024-03-17T10:06:11;21.00;90.80
3705;DHT22;1868;48.918;9.438;2024-03-17T10:08:46;20.70;92.20
3705;DHT22;1868;48.918;9.438;2024-03-17T10:11:19;20.60;93.00
3705;DHT22;1868;48.918;9.438;2024-03-17T10:14:00;20.40;94.70
3705;DHT22;1868;48.918;9.438;2024-03-17T10:16:30;20.40;93.90
3705;DHT22;1868;48.918;9.438;2024-03-17T10:19:07;20.40;92.70
3705;DHT22;1868;48.918;9.438;2024-03-17T10:21:38;20.50;93.70
3705;DHT22;1868;48.918;9.438;2024-03-17T10:24:09;20.60;94.40
3705;DHT22;1868;48.918;9.438;2024-03-17T10:26:41;20.90;94.80
3705;DHT22;1868;48.918;9.438;2024-03-17T10:29:20;21.00;92.40
3705;DHT22;1868;48.918;9.438;2024-03-17T10:31:53;21.40;92.80
3705;DHT22;1868;48.918;9.438;2024-03-17T10:34:22;21.80;91.70
3705;DHT22;1868;48.918;9.438;2024-03-17T10:36:52;22.00;88.60
3705;DHT22;1868;48.918;9.438;2024-03-17T10:39:23;22.00;89.20
3705;DHT22;1868;48.918;9.438;2024-03-17T10:42:02;22.00;90.60
3705;DHT22;1868;48.918;9.438;2024-03-17T10:44:36;21.90;90.60
3705;DHT22;1868;48.918;9.438;2024-03-17T10:47:06;21.90;90.40
3705;DHT22;1868;48.918;9.438;2024-03-17T10:49:37;21.70;90.40
3705;DHT22;1868;48.918;9.438;2024-03-17T10:52:17;21.50;90.90
3705;DHT22;1868;48.918;9.438;2024-03-17T10:54:47;21.30;91.10
3705;DHT22;1868;48.918;9.438;2024-03-17T11:00:10;20.90;91.80
3705;DHT22;1868;48.918;9.438;2024-03-17T11:02:44;20.70;91.60
3705;DHT22;1868;48.918;9.438;2024-03-17T11:05:17;20.60;92.00
3705;DHT22;1868;48.918;9.438;2024-03-17T11:07:50;20.70;91.40
3705;DHT22;1868;48.918;9.438;2024-03-17T11:10:22;21.20;91.90
3705;DHT22;1868;48.918;9.438;2024-03-17T11:12:54;21.60;90.10
3705;DHT22;1868;48.918;9.438;2024-03-17T11:15:38;22.20;89.00
3705;DHT22;1868;48.918;9.438;2024-03-17T11:18:38;22.70;86.00
3705;DHT22;1868;48.918;9.438;2024-03-17T11:21:19;22.90;87.10
3705;DHT22;1868;48.918;9.438;2024-03-17T11:23:56;23.10;85.30
3705;DHT22;1868;48.918;9.438;2024-03-17T11:26:28;23.40;83.60
3705;DHT22;1868;48.918;9.438;2024-03-17T11:28:59;23.60;82.80
3705;DHT22;1868;48.918;9.438;2024-03-17T11:31:43;23.90;83.40
3705;DHT22;1868;48.918;9.438;2024-03-17T11:34:31;24.30;82.30
3705;DHT22;1868;48.918;9.438;2024-03-17T11:37:03;24.60;79.90
3705;DHT22;1868;48.918;9.438;2024-03-17T11:39:51;24.50;78.40
3705;DHT22;1868;48.918;9.438;2024-03-17T11:42:24;24.60;78.60
3705;DHT22;1868;48.918;9.438;2024-03-17T11:45:08;24.40;78.20
3705;DHT22;1868;48.918;9.438;2024-03-17T11:47:42;24.00;78.20
3705;DHT22;1868;48.918;9.438;2024-03-17T11:50:10;23.60;78.40
3705;DHT22;1868;48.918;9.438;2024-03-17T11:52:40;23.60;80.20
3705;DHT22;1868;48.918;9.438;2024-03-17T11:55:17;23.50;77.10
3705;DHT22;1868;48.918;9.438;2024-03-17T11:57:55;23.60;80.60
3705;DHT22;1868;48.918;9.438;2024-03-17T12:00:25;23.50;79.70
3705;DHT22;1868;48.918;9.438;2024-03-17T12:02:53;23.30;81.20
3705;DHT22;1868;48.918;9.438;2024-03-17T12:05:21;23.30;80.80
3705;DHT22;1868;48.918;9.438;2024-03-17T12:07:50;23.30;82.30
3705;DHT22;1868;48.918;9.438;2024-03-17T12:10:20;22.90;80.60
3705;DHT22;1868;48.918;9.438;2024-03-17T12:12:48;22.90;80.60
3705;DHT22;1868;48.918;9.438;2024-03-17T12:15:18;22.80;81.90
3705;DHT22;1868;48.918;9.438;2024-03-17T12:17:53;22.70;82.30
3705;DHT22;1868;48.918;9.438;2024-03-17T12:20:21;23.00;81.70
3705;DHT22;1868;48.918;9.438;2024-03-17T12:22:49;23.10;81.50
3705;DHT22;1868;48.918;9.438;2024-03-17T12:25:19;23.20;81.00
3705;DHT22;1868;48.918;9.438;2024-03-17T12:27:49;23.50;79.70
3705;DHT22;1868;48.918;9.438;2024-03-17T12:30:16;23.40;79.90
3705;DHT22;1868;48.918;9.438;2024-03-17T12:32:44;23.40;81.50
3705;DHT22;1868;48.918;9.438;2024-03-17T12:35:15;23.50;79.30
3705;DHT22;1868;48.918;9.438;2024-03-17T12:37:45;23.70;77.80
3705;DHT22;1868;48.918;9.438;2024-03-17T12:40:19;23.80;78.00
3705;DHT22;1868;48.918;9.438;2024-03-17T12:42:49;23.80;77.60
3705;DHT22;1868;48.918;9.438;2024-03-17T12:45:19;23.90;76.70
3705;DHT22;1868;48.918;9.438;2024-03-17T12:47:48;23.80;75.00
3705;DHT22;1868;48.918;9.438;2024-03-17T12:50:17;23.70;76.50
3705;DHT22;1868;48.918;9.438;2024-03-17T12:52:53;23.40;75.40
3705;DHT22;1868;48.918;9.438;2024-03-17T12:55:22;22.90;75.90
3705;DHT22;1868;48.918;9.438;2024-03-17T12:58:09;22.70;77.10
3705;DHT22;1868;48.918;9.438;2024-03-17T13:00:58;22.40;79.30
3705;DHT22;1868;48.918;9.438;2024-03-17T13:03:27;22.10;80.00
3705;DHT22;1868;48.918;9.438;2024-03-17T13:05:59;21.90;82.10
3705;DHT22;1868;48.918;9.438;2024-03-17T13:08:28;21.60;83.00
3705;DHT22;1868;48.918;9.438;2024-03-17T13:10:57;21.40;82.50
3705;DHT22;1868;48.918;9.438;2024-03-17T13:13:26;21.00;84.00
3705;DHT22;1868;48.918;9.438;2024-03-17T13:15:55;20.80;85.30
3705;DHT22;1868;48.918;9.438;2024-03-17T13:18:23;20.50;86.80
3705;DHT22;1868;48.918;9.438;2024-03-17T13:20:51;20.30;88.20
3705;DHT22;1868;48.918;9.438;2024-03-17T13:23:22;20.10;88.80
3705;DHT22;1868;48.918;9.438;2024-03-17T13:25:50;19.90;87.70
3705;DHT22;1868;48.918;9.438;2024-03-17T13:28:18;19.60;88.40
3705;DHT22;1868;48.918;9.438;2024-03-17T13:30:46;19.50;90.40
3705;DHT22;1868;48.918;9.438;2024-03-17T13:33:14;19.30;90.90
3705;DHT22;1868;48.918;9.438;2024-03-17T13:35:44;19.20;90.20
3705;DHT22;1868;48.918;9.438;2024-03-17T13:38:12;18.90;90.90
3705;DHT22;1868;48.918;9.438;2024-03-17T13:40:41;18.80;91.40
3705;DHT22;1868;48.918;9.438;2024-03-17T13:43:09;18.70;92.60
3705;DHT22;1868;48.918;9.438;2024-03-17T13:45:41;18.60;92.30
3705;DHT22;1868;48.918;9.438;2024-03-17T13:48:10;18.50;93.00
3705;DHT22;1868;48.918;9.438;2024-03-17T13:50:39;18.40;93.50
3705;DHT22;1868;48.918;9.438;2024-03-17T13:53:10;18.40;93.70
3705;DHT22;1868;48.918;9.438;2024-03-17T13:55:38;18.40;93.70
3705;DHT22;1868;48.918;9.438;2024-03-17T13:58:08;18.30;93.20
3705;DHT22;1868;48.918;9.438;2024-03-17T14:00:38;18.30;93.50
3705;DHT22;1868;48.918;9.438;2024-03-17T14:03:08;18.30;93.20
3705;DHT22;1868;48.918;9.438;2024-03-17T14:05:37;18.30;93.00
3705;DHT22;1868;48.918;9.438;2024-03-17T14:08:06;18.30;93.30
3705;DHT22;1868;48.918;9.438;2024-03-17T14:10:35;18.30;93.50
3705;DHT22;1868;48.918;9.438;2024-03-17T14:13:05;18.30;93.10
3705;DHT22;1868;48.918;9.438;2024-03-17T14:15:35;18.20;92.90
3705;DHT22;1868;48.918;9.438;2024-03-17T14:18:05;18.30;93.10
3705;DHT22;1868;48.918;9.438;2024-03-17T14:20:34;18.30;92.90
3705;DHT22;1868;48.918;9.438;2024-03-17T14:23:03;18.30;93.40
3705;DHT22;1868;48.918;9.438;2024-03-17T14:25:32;18.30;93.00
3705;DHT22;1868;48.918;9.438;2024-03-17T14:27:59;18.20;92.80
3705;DHT22;1868;48.918;9.438;2024-03-17T14:30:29;18.20;93.50
3705;DHT22;1868;48.918;9.438;2024-03-17T14:32:57;18.10;94.00
3705;DHT22;1868;48.918;9.438;2024-03-17T14:35:25;18.10;94.40
3705;DHT22;1868;48.918;9.438;2024-03-17T14:37:54;18.10;93.90
3705;DHT22;1868;48.918;9.438;2024-03-17T14:40:24;18.00;94.00
3705;DHT22;1868;48.918;9.438;2024-03-17T14:42:55;18.00;94.40
3705;DHT22;1868;48.918;9.438;2024-03-17T14:45:23;18.10;95.30
3705;DHT22;1868;48.918;9.438;2024-03-17T14:47:53;18.10;94.40
3705;DHT22;1868;48.918;9.438;2024-03-17T14:50:22;18.20;95.10
3705;DHT22;1868;48.918;9.438;2024-03-17T14:52:53;18.20;94.80
3705;DHT22;1868;48.918;9.438;2024-03-17T14:55:20;18.30;94.10
3705;DHT22;1868;48.918;9.438;2024-03-17T14:57:51;18.40;93.60
3705;DHT22;1868;48.918;9.438;2024-03-17T15:00:19;18.40;93.20
3705;DHT22;1868;48.918;9.438;2024-03-17T15:02:51;18.50;93.40
3705;DHT22;1868;48.918;9.438;2024-03-17T15:05:20;18.60;93.20
3705;DHT22;1868;48.918;9.438;2024-03-17T15:07:51;18.80;92.50
3705;DHT22;1868;48.918;9.438;2024-03-17T15:10:19;19.20;92.90
3705;DHT22;1868;48.918;9.438;2024-03-17T15:12:48;19.60;92.80
3705;DHT22;1868;48.918;9.438;2024-03-17T15:15:16;19.80;92.40
3705;DHT22;1868;48.918;9.438;2024-03-17T15:17:44;19.70;91.90
3705;DHT22;1868;48.918;9.438;2024-03-17T15:20:13;19.60;91.40
3705;DHT22;1868;48.918;9.438;2024-03-17T15:22:46;19.60;92.40
3705;DHT22;1868;48.918;9.438;2024-03-17T15:25:15;19.40;91.90
3705;DHT22;1868;48.918;9.438;2024-03-17T15:27:44;19.20;93.00
3705;DHT22;1868;48.918;9.438;2024-03-17T15:30:13;19.10;92.70
3705;DHT22;1868;48.918;9.438;2024-03-17T15:32:44;19.00;92.80
3705;DHT22;1868;48.918;9.438;2024-03-17T15:35:15;18.70;92.00
3705;DHT22;1868;48.918;9.438;2024-03-17T15:37:44;18.50;93.10
3705;DHT22;1868;48.918;9.438;2024-03-17T15:40:12;18.30;92.30
3705;DHT22;1868;48.918;9.438;2024-03-17T15:42:43;18.10;92.80
3705;DHT22;1868;48.918;9.438;2024-03-17T15:45:12;18.10;94.20
3705;DHT22;1868;48.918;9.438;2024-03-17T15:47:41;17.90;93.80
3705;DHT22;1868;48.918;9.438;2024-03-17T15:50:10;17.70;94.10
3705;DHT22;1868;48.918;9.438;2024-03-17T15:52:41;17.70;95.60
3705;DHT22;1868;48.918;9.438;2024-03-17T15:55:10;17.70;95.40
3705;DHT22;1868;48.918;9.438;2024-03-17T15:57:41;17.60;94.70
3705;DHT22;1868;48.918;9.438;2024-03-17T16:00:09;17.60;94.20
3705;DHT22;1868;48.918;9.438;2024-03-17T16:02:41;17.60;94.40
3705;DHT22;1868;48.918;9.438;2024-03-17T16:05:08;17.50;94.60
3705;DHT22;1868;48.918;9.438;2024-03-17T16:07:38;17.40;96.10
3705;DHT22;1868;48.918;9.438;2024-03-17T16:10:11;17.40;96.20
3705;DHT22;1868;48.918;9.438;2024-03-17T16:12:45;17.30;96.00
3705;DHT22;1868;48.918;9.438;2024-03-17T16:15:13;17.30;96.10
3705;DHT22;1868;48.918;9.438;2024-03-17T16:17:40;17.20;97.10
3705;DHT22;1868;48.918;9.438;2024-03-17T16:23:24;16.90;97.00
3705;DHT22;1868;48.918;9.438;2024-03-17T16:25:53;16.70;97.40
3705;DHT22;1868;48.918;9.438;2024-03-17T16:28:24;16.60;97.40
3705;DHT22;1868;48.918;9.438;2024-03-17T16:30:54;16.50;97.40
3705;DHT22;1868;48.918;9.438;2024-03-17T16:33:23;16.40;97.40